createdAt,value
2023-04-29T00:02:12.460Z,44.20
2023-04-29T00:04:41.330Z,38.72
2023-04-29T00:07:10.437Z,38.72
2023-04-29T00:09:39.631Z,37.92
2023-04-29T00:12:08.303Z,42.00
2023-04-29T00:14:37.016Z,37.63
2023-04-29T00:17:05.910Z,38.08
2023-04-29T00:19:34.685Z,40.47
2023-04-29T00:22:03.571Z,38.47
2023-04-29T00:24:32.140Z,38.58
2023-04-29T00:27:00.836Z,38.17
2023-04-29T00:29:29.739Z,40.05
2023-04-29T00:32:01.306Z,39.65
2023-04-29T00:34:29.967Z,44.08
2023-04-29T00:36:58.606Z,37.25
2023-04-29T00:39:29.702Z,37.22
2023-04-29T00:41:58.390Z,37.85
2023-04-29T00:44:27.113Z,37.10
2023-04-29T00:46:55.802Z,37.28
2023-04-29T00:49:24.529Z,38.63
2023-04-29T00:51:53.384Z,37.67
2023-04-29T00:54:22.700Z,35.40
2023-04-29T00:56:52.405Z,37.72
2023-04-29T00:59:21.839Z,39.10
2023-04-29T01:01:50.537Z,38.85
2023-04-29T01:04:19.728Z,35.38
2023-04-29T01:07:17.938Z,48.90
2023-04-29T01:10:02.350Z,37.92
2023-04-29T01:13:01.599Z,36.63
2023-04-29T01:15:39.358Z,38.33
2023-04-29T01:18:21.647Z,37.63
2023-04-29T01:20:50.916Z,35.60
2023-04-29T01:23:19.546Z,38.50
2023-04-29T01:25:49.875Z,36.70
2023-04-29T01:28:47.662Z,38.55
2023-04-29T01:31:40.121Z,36.05
2023-04-29T01:34:35.433Z,35.40
2023-04-29T01:37:24.145Z,38.88
2023-04-29T01:40:20.307Z,37.40
2023-04-29T01:43:12.762Z,35.42
2023-04-29T01:45:42.868Z,34.80
2023-04-29T01:48:11.692Z,36.78
2023-04-29T01:50:40.411Z,36.70
2023-04-29T01:53:09.273Z,35.80
2023-04-29T01:55:38.054Z,36.95
2023-04-29T01:58:06.690Z,37.55
2023-04-29T02:00:35.436Z,35.60
2023-04-29T02:03:04.516Z,38.28
2023-04-29T02:05:35.023Z,37.58
2023-04-29T02:08:04.203Z,45.15
2023-04-29T02:10:32.903Z,37.88
2023-04-29T02:13:02.491Z,36.15
2023-04-29T02:15:31.279Z,34.55
2023-04-29T02:18:00.159Z,34.90
2023-04-29T02:20:29.061Z,33.13
2023-04-29T02:22:57.885Z,35.30
2023-04-29T02:25:26.561Z,34.03
2023-04-29T02:27:55.267Z,36.67
2023-04-29T02:30:23.992Z,36.17
2023-04-29T02:32:54.050Z,36.10
2023-04-29T02:35:22.970Z,35.50
2023-04-29T02:37:51.655Z,35.53
2023-04-29T02:40:20.398Z,35.28
2023-04-29T02:42:49.141Z,36.50
2023-04-29T02:45:18.334Z,35.92
2023-04-29T02:47:47.068Z,36.08
2023-04-29T02:50:15.826Z,36.22
2023-04-29T02:52:44.432Z,35.92
2023-04-29T02:55:13.050Z,35.97
2023-04-29T02:57:42.179Z,35.95
2023-04-29T03:00:11.539Z,35.15
2023-04-29T03:02:40.271Z,35.55
2023-04-29T03:05:09.333Z,34.72
2023-04-29T03:07:38.123Z,33.72
2023-04-29T03:10:07.514Z,34.58
2023-04-29T03:12:36.304Z,34.25
2023-04-29T03:15:06.173Z,33.70
2023-04-29T03:17:35.677Z,33.30
2023-04-29T03:20:05.815Z,32.17
2023-04-29T03:22:34.768Z,31.55
2023-04-29T03:25:03.604Z,32.83
2023-04-29T03:27:32.233Z,33.28
2023-04-29T03:30:01.046Z,32.28
2023-04-29T03:32:29.730Z,33.85
2023-04-29T03:34:58.622Z,35.10
2023-04-29T03:37:27.374Z,32.67
2023-04-29T03:39:56.125Z,32.78
2023-04-29T03:42:24.746Z,33.58
2023-04-29T03:44:53.342Z,32.28
2023-04-29T03:47:21.996Z,32.33
2023-04-29T03:49:50.996Z,30.33
2023-04-29T03:52:19.882Z,31.02
2023-04-29T03:54:48.477Z,29.55
2023-04-29T03:57:17.067Z,29.15
2023-04-29T03:59:46.518Z,28.70
2023-04-29T04:02:15.230Z,27.58
2023-04-29T04:04:44.330Z,29.38
2023-04-29T04:07:13.250Z,28.83
2023-04-29T04:09:42.087Z,27.33
2023-04-29T04:12:10.740Z,28.63
2023-04-29T04:14:39.402Z,27.33
2023-04-29T04:17:08.633Z,27.13
2023-04-29T04:19:37.406Z,27.05
2023-04-29T04:22:06.378Z,28.73
2023-04-29T04:24:35.041Z,28.42
2023-04-29T04:27:03.638Z,30.02
2023-04-29T04:29:32.237Z,26.92
2023-04-29T04:32:01.166Z,27.90
2023-04-29T04:34:30.088Z,29.73
2023-04-29T04:36:58.839Z,27.17
2023-04-29T04:39:27.903Z,26.83
2023-04-29T04:41:56.533Z,26.25
2023-04-29T04:44:25.283Z,26.48
2023-04-29T04:46:53.909Z,26.25
2023-04-29T04:49:22.619Z,25.73
2023-04-29T04:51:51.414Z,25.08
2023-04-29T04:54:20.159Z,25.55
2023-04-29T04:56:49.475Z,24.48
2023-04-29T04:59:18.151Z,25.17
2023-04-29T05:01:47.138Z,24.92
2023-04-29T05:04:16.771Z,23.55
2023-04-29T05:06:47.714Z,24.90
2023-04-29T05:09:16.588Z,24.95
2023-04-29T05:11:45.225Z,22.67
2023-04-29T05:14:13.937Z,23.70
2023-04-29T05:16:42.689Z,26.05
2023-04-29T05:19:11.412Z,25.95
2023-04-29T05:21:40.102Z,24.65
2023-04-29T05:24:09.459Z,25.80
2023-04-29T05:26:39.138Z,25.77
2023-04-29T05:29:07.897Z,27.42
2023-04-29T05:31:36.618Z,25.45
2023-04-29T05:34:05.607Z,25.10
2023-04-29T05:36:34.258Z,25.50
2023-04-29T05:39:02.870Z,24.23
2023-04-29T05:41:31.507Z,23.65
2023-04-29T05:44:00.150Z,24.95
2023-04-29T05:46:28.820Z,27.02
2023-04-29T05:48:57.445Z,24.13
2023-04-29T05:51:26.186Z,24.65
2023-04-29T05:53:55.106Z,24.85
2023-04-29T05:56:24.434Z,25.05
2023-04-29T05:58:53.129Z,23.48
2023-04-29T06:01:21.718Z,24.55
2023-04-29T06:03:50.637Z,24.23
2023-04-29T06:06:19.763Z,23.75
2023-04-29T06:08:48.484Z,22.85
2023-04-29T06:11:17.211Z,24.13
2023-04-29T06:13:45.820Z,24.42
2023-04-29T06:16:14.453Z,25.05
2023-04-29T06:18:43.097Z,26.30
2023-04-29T06:21:11.750Z,25.63
2023-04-29T06:23:40.385Z,24.75
2023-04-29T06:26:09.074Z,22.70
2023-04-29T06:28:38.005Z,23.55
2023-04-29T06:31:06.672Z,22.80
2023-04-29T06:33:35.659Z,23.88
2023-04-29T06:36:04.420Z,24.80
2023-04-29T06:38:33.065Z,23.50
2023-04-29T06:41:02.028Z,23.75
2023-04-29T06:43:31.007Z,23.60
2023-04-29T06:45:59.771Z,24.33
2023-04-29T06:48:29.007Z,23.88
2023-04-29T06:50:59.589Z,23.92
2023-04-29T06:53:28.288Z,23.67
2023-04-29T06:55:57.004Z,25.13
2023-04-29T06:58:25.629Z,24.98
2023-04-29T07:00:54.386Z,25.55
2023-04-29T07:03:23.876Z,24.55
2023-04-29T07:05:52.769Z,24.83
2023-04-29T07:08:21.494Z,23.98
2023-04-29T07:11:05.445Z,25.08
2023-04-29T07:13:34.310Z,23.95
2023-04-29T07:16:02.971Z,23.75
2023-04-29T07:18:31.824Z,22.90
2023-04-29T07:21:04.025Z,24.35
2023-04-29T07:23:32.683Z,23.65
2023-04-29T07:26:09.890Z,24.08
2023-04-29T07:28:38.539Z,24.60
2023-04-29T07:31:08.578Z,23.98
2023-04-29T07:33:37.640Z,24.25
2023-04-29T07:36:08.354Z,24.02
2023-04-29T07:38:37.917Z,23.33
2023-04-29T07:41:06.704Z,24.38
2023-04-29T07:43:35.479Z,24.85
2023-04-29T07:46:04.141Z,23.45
2023-04-29T07:48:32.863Z,24.17
2023-04-29T07:51:01.569Z,25.02
2023-04-29T07:53:30.392Z,23.45
2023-04-29T07:55:59.109Z,23.40
2023-04-29T07:58:30.003Z,23.02
2023-04-29T08:00:58.690Z,24.63
2023-04-29T08:03:29.290Z,24.30
2023-04-29T08:06:04.403Z,26.05
2023-04-29T08:08:33.574Z,25.08
2023-04-29T08:11:02.314Z,22.67
2023-04-29T08:13:31.048Z,23.38
2023-04-29T08:15:59.853Z,23.52
2023-04-29T08:18:28.936Z,22.77
2023-04-29T08:20:57.602Z,23.85
2023-04-29T08:23:26.392Z,23.55
2023-04-29T08:25:56.852Z,22.42
2023-04-29T08:28:25.715Z,22.85
2023-04-29T08:30:54.411Z,22.27
2023-04-29T08:33:23.463Z,21.08
2023-04-29T08:36:01.424Z,22.52
2023-04-29T08:38:30.220Z,21.95
2023-04-29T08:40:59.131Z,22.50
2023-04-29T08:43:28.394Z,24.67
2023-04-29T08:45:59.335Z,22.70
2023-04-29T08:48:29.961Z,23.45
2023-04-29T08:51:00.423Z,23.38
2023-04-29T08:53:29.174Z,22.15
2023-04-29T08:56:02.504Z,24.88
2023-04-29T08:58:35.436Z,22.98
2023-04-29T09:01:04.785Z,23.42
2023-04-29T09:03:58.070Z,23.80
2023-04-29T09:06:27.649Z,24.30
2023-04-29T09:08:56.402Z,23.45
2023-04-29T09:11:25.272Z,23.98
2023-04-29T09:13:59.486Z,22.88
2023-04-29T09:16:28.725Z,24.42
2023-04-29T09:18:58.513Z,23.83
2023-04-29T09:21:29.291Z,25.77
2023-04-29T09:24:00.925Z,25.33
2023-04-29T09:26:37.737Z,26.30
2023-04-29T09:29:11.036Z,25.23
2023-04-29T09:31:41.515Z,24.42
2023-04-29T09:34:10.299Z,25.05
2023-04-29T09:36:40.890Z,26.35
2023-04-29T09:39:13.517Z,27.30
2023-04-29T09:41:44.817Z,23.88
2023-04-29T09:44:13.496Z,26.55
2023-04-29T09:46:42.225Z,24.33
2023-04-29T09:49:32.291Z,23.67
2023-04-29T09:52:03.047Z,25.20
2023-04-29T09:54:33.673Z,24.73
2023-04-29T09:57:07.388Z,25.52
2023-04-29T09:59:38.580Z,25.17
2023-04-29T10:02:16.491Z,25.63
2023-04-29T10:04:48.153Z,25.60
2023-04-29T10:07:18.408Z,25.37
2023-04-29T10:09:48.925Z,27.60
2023-04-29T10:12:19.599Z,26.15
2023-04-29T10:15:14.825Z,26.55
2023-04-29T10:18:04.510Z,27.25
2023-04-29T10:20:34.134Z,32.10
2023-04-29T10:23:04.465Z,37.72
2023-04-29T10:25:34.941Z,43.38
2023-04-29T10:28:05.955Z,35.88
2023-04-29T10:30:35.299Z,50.58
2023-04-29T10:33:05.421Z,37.60
2023-04-29T10:35:34.764Z,34.72
2023-04-29T10:38:10.171Z,35.30
2023-04-29T10:40:46.676Z,32.95
2023-04-29T10:43:16.193Z,35.00
2023-04-29T10:45:44.969Z,35.67
2023-04-29T10:48:14.924Z,34.17
2023-04-29T10:50:51.989Z,35.42
2023-04-29T10:53:21.722Z,33.70
2023-04-29T10:55:59.462Z,32.40
2023-04-29T10:58:47.288Z,33.15
2023-04-29T11:01:17.996Z,33.58
2023-04-29T11:03:51.181Z,37.55
2023-04-29T11:06:19.955Z,32.83
2023-04-29T11:08:49.667Z,33.38
2023-04-29T11:11:18.364Z,34.70
2023-04-29T11:13:48.960Z,33.60
2023-04-29T11:16:17.706Z,33.13
2023-04-29T11:19:07.612Z,34.65
2023-04-29T11:21:38.272Z,33.10
2023-04-29T11:24:08.178Z,33.38
2023-04-29T11:26:37.525Z,32.10
2023-04-29T11:29:11.498Z,38.05
2023-04-29T11:31:40.487Z,34.42
2023-04-29T11:34:09.258Z,34.42
2023-04-29T11:36:38.137Z,36.35
2023-04-29T11:39:06.945Z,34.45
2023-04-29T11:41:36.755Z,37.22
2023-04-29T11:44:07.729Z,33.60
2023-04-29T11:46:36.528Z,35.72
2023-04-29T11:49:05.364Z,35.17
2023-04-29T11:51:34.210Z,32.33
2023-04-29T11:54:02.970Z,33.03
2023-04-29T11:56:31.795Z,32.65
2023-04-29T11:59:02.242Z,33.20
2023-04-29T12:01:31.049Z,33.35
2023-04-29T12:04:01.072Z,30.75
2023-04-29T12:06:31.173Z,31.42
2023-04-29T12:09:02.016Z,30.75
2023-04-29T12:11:30.711Z,29.80
2023-04-29T12:14:02.044Z,29.25
2023-04-29T12:16:31.380Z,30.70
2023-04-29T12:19:01.629Z,30.63
2023-04-29T12:21:30.384Z,29.15
2023-04-29T12:24:02.342Z,27.60
2023-04-29T12:26:33.011Z,28.13
2023-04-29T12:29:01.740Z,29.30
2023-04-29T12:31:37.801Z,27.75
2023-04-29T12:34:08.424Z,27.42
2023-04-29T12:36:38.804Z,30.55
2023-04-29T12:39:11.263Z,28.17
2023-04-29T12:41:42.792Z,27.05
2023-04-29T12:44:11.985Z,28.73
2023-04-29T12:46:42.336Z,26.75
2023-04-29T12:49:11.081Z,24.55
2023-04-29T12:51:39.702Z,25.95
2023-04-29T12:54:08.604Z,24.40
2023-04-29T12:56:37.674Z,22.67
2023-04-29T12:59:08.726Z,23.13
2023-04-29T13:01:38.318Z,22.00
2023-04-29T13:04:09.796Z,23.73
2023-04-29T13:06:40.540Z,21.23
2023-04-29T13:09:18.568Z,21.33
2023-04-29T13:11:48.261Z,22.95
2023-04-29T13:14:17.861Z,21.58
2023-04-29T13:16:47.143Z,22.20
2023-04-29T13:19:32.108Z,20.27
2023-04-29T13:22:04.490Z,21.23
2023-04-29T13:24:34.146Z,21.83
2023-04-29T13:27:03.993Z,21.27
2023-04-29T13:29:32.952Z,23.80
2023-04-29T13:32:01.854Z,20.02
2023-04-29T13:34:30.551Z,20.75
2023-04-29T13:36:59.218Z,20.10
2023-04-29T13:39:27.825Z,20.95
2023-04-29T13:41:58.926Z,20.65
2023-04-29T13:44:35.709Z,22.67
2023-04-29T13:47:08.355Z,22.95
2023-04-29T13:50:09.929Z,20.60
2023-04-29T13:53:10.471Z,20.60
2023-04-29T13:56:01.692Z,21.02
2023-04-29T14:00:55.104Z,20.77
2023-04-29T14:03:24.129Z,21.42
2023-04-29T14:05:53.372Z,21.80
2023-04-29T14:08:22.065Z,21.30
2023-04-29T14:10:50.813Z,20.92
2023-04-29T14:13:19.523Z,21.08
2023-04-29T14:15:48.466Z,20.17
2023-04-29T14:18:17.245Z,20.85
2023-04-29T14:20:46.064Z,19.67
2023-04-29T14:23:14.715Z,20.55
2023-04-29T14:25:43.595Z,21.77
2023-04-29T14:28:12.408Z,18.85
2023-04-29T14:30:42.568Z,18.77
2023-04-29T14:33:11.799Z,20.30
2023-04-29T14:35:40.482Z,19.75
2023-04-29T14:38:09.589Z,19.92
2023-04-29T14:40:40.094Z,20.52
2023-04-29T14:43:08.895Z,20.48
2023-04-29T14:45:38.579Z,17.20
2023-04-29T14:48:07.349Z,16.92
2023-04-29T14:50:35.967Z,16.42
2023-04-29T14:53:05.245Z,15.95
2023-04-29T14:55:34.078Z,16.83
2023-04-29T14:58:05.859Z,16.17
2023-04-29T15:00:34.484Z,16.80
2023-04-29T15:03:04.110Z,16.88
2023-04-29T15:05:32.882Z,17.35
2023-04-29T15:08:02.581Z,16.10
2023-04-29T15:10:31.939Z,16.17
2023-04-29T15:13:00.585Z,14.25
2023-04-29T15:15:29.851Z,14.82
2023-04-29T15:17:58.482Z,16.45
2023-04-29T15:20:27.331Z,15.50
2023-04-29T15:22:56.054Z,15.52
2023-04-29T15:25:26.594Z,14.60
2023-04-29T15:27:56.747Z,15.38
2023-04-29T15:30:25.449Z,17.05
2023-04-29T15:32:54.698Z,15.07
2023-04-29T15:35:23.707Z,15.23
2023-04-29T15:37:52.377Z,16.35
2023-04-29T15:40:21.175Z,15.60
2023-04-29T15:42:49.775Z,15.57
2023-04-29T15:45:18.480Z,15.07
2023-04-29T15:47:47.849Z,17.27
2023-04-29T15:50:16.491Z,15.30
2023-04-29T15:52:45.155Z,16.65
2023-04-29T15:55:13.904Z,15.32
2023-04-29T15:57:43.635Z,18.80
2023-04-29T16:00:13.434Z,16.65
2023-04-29T16:02:42.081Z,32.95
2023-04-29T16:05:11.004Z,15.57
2023-04-29T16:07:39.664Z,16.58
2023-04-29T16:10:08.659Z,18.30
2023-04-29T16:12:37.289Z,17.85
2023-04-29T16:15:07.154Z,19.08
2023-04-29T16:17:35.876Z,26.05
2023-04-29T16:20:04.952Z,25.00
2023-04-29T16:22:33.600Z,41.90
2023-04-29T16:25:02.676Z,24.08
2023-04-29T16:27:31.717Z,30.75
2023-04-29T16:30:00.847Z,18.42
2023-04-29T16:32:29.997Z,15.95
2023-04-29T16:35:00.830Z,19.92
2023-04-29T16:37:30.267Z,15.90
2023-04-29T16:39:59.239Z,17.92
2023-04-29T16:42:28.044Z,15.68
2023-04-29T16:44:56.877Z,18.00
2023-04-29T16:47:26.430Z,16.27
2023-04-29T16:49:56.347Z,16.85
2023-04-29T16:52:25.216Z,17.80
2023-04-29T16:54:54.151Z,18.48
2023-04-29T16:57:23.060Z,15.60
2023-04-29T17:01:13.081Z,20.23
2023-04-29T17:03:43.049Z,18.00
2023-04-29T17:06:12.327Z,15.63
2023-04-29T17:08:41.406Z,15.85
2023-04-29T17:11:10.101Z,15.32
2023-04-29T17:13:38.793Z,17.00
2023-04-29T17:16:08.555Z,16.70
2023-04-29T17:18:38.360Z,14.30
2023-04-29T17:21:07.162Z,16.17
2023-04-29T17:23:36.257Z,14.27
2023-04-29T17:26:06.099Z,18.33
2023-04-29T17:28:34.766Z,15.48
2023-04-29T17:31:03.433Z,19.02
2023-04-29T17:33:36.247Z,18.67
2023-04-29T17:38:35.284Z,15.07
2023-04-29T17:41:04.610Z,14.32
2023-04-29T17:43:34.718Z,12.80
2023-04-29T17:46:03.374Z,14.25
2023-04-29T17:48:33.148Z,12.38
2023-04-29T17:51:01.863Z,13.50
2023-04-29T17:53:30.666Z,12.77
2023-04-29T17:56:00.265Z,12.98
2023-04-29T17:58:29.824Z,12.77
2023-04-29T18:00:58.708Z,14.50
2023-04-29T18:03:28.214Z,15.95
2023-04-29T18:05:56.967Z,14.50
2023-04-29T18:08:25.674Z,12.93
2023-04-29T18:10:55.444Z,12.93
2023-04-29T18:13:26.557Z,14.13
2023-04-29T18:15:56.542Z,12.43
2023-04-29T18:18:25.351Z,14.25
2023-04-29T18:20:54.016Z,14.13
2023-04-29T18:23:23.577Z,12.70
2023-04-29T18:25:52.219Z,12.98
2023-04-29T18:28:25.334Z,13.88
2023-04-29T18:30:54.520Z,12.82
2023-04-29T18:33:24.214Z,17.25
2023-04-29T18:35:53.026Z,13.77
2023-04-29T18:38:22.025Z,15.75
2023-04-29T18:40:50.778Z,14.20
2023-04-29T18:43:25.234Z,13.20
2023-04-29T18:45:53.922Z,14.10
2023-04-29T18:48:33.584Z,14.77
2023-04-29T18:51:05.117Z,16.23
2023-04-29T18:56:28.507Z,14.82
2023-04-29T18:58:57.550Z,14.98
2023-04-29T19:01:26.758Z,14.10
2023-04-29T19:03:56.141Z,15.73
2023-04-29T19:06:24.804Z,18.27
2023-04-29T19:08:53.529Z,17.13
2023-04-29T19:11:23.433Z,17.52
2023-04-29T19:13:52.087Z,20.45
2023-04-29T19:16:24.132Z,16.98
2023-04-29T19:18:53.773Z,15.93
2023-04-29T19:21:23.903Z,15.98
2023-04-29T19:23:53.223Z,17.92
2023-04-29T19:26:22.160Z,21.77
2023-04-29T19:28:50.762Z,16.95
2023-04-29T19:31:19.427Z,18.65
2023-04-29T19:33:49.012Z,19.92
2023-04-29T19:36:20.729Z,16.25
2023-04-29T19:38:50.171Z,16.70
2023-04-29T19:41:21.744Z,15.85
2023-04-29T19:43:50.384Z,17.70
2023-04-29T19:46:19.059Z,16.95
2023-04-29T19:48:47.801Z,18.85
2023-04-29T19:51:16.871Z,16.33
2023-04-29T19:53:57.464Z,18.00
2023-04-29T19:56:32.038Z,15.98
2023-04-29T19:59:00.790Z,16.63
2023-04-29T20:01:29.496Z,15.02
2023-04-29T20:03:58.398Z,18.05
2023-04-29T20:06:28.085Z,18.90
2023-04-29T20:08:57.072Z,15.82
2023-04-29T20:11:25.884Z,16.98
2023-04-29T20:13:54.714Z,16.67
2023-04-29T20:16:24.511Z,15.70
2023-04-29T20:18:53.328Z,16.85
2023-04-29T20:21:22.057Z,19.73
2023-04-29T20:23:50.884Z,15.18
2023-04-29T20:26:19.946Z,16.08
2023-04-29T20:28:58.160Z,16.08
2023-04-29T20:31:27.082Z,19.27
2023-04-29T20:34:03.989Z,16.15
2023-04-29T20:36:32.914Z,15.48
2023-04-29T20:39:07.555Z,16.23
2023-04-29T20:41:36.384Z,15.48
2023-04-29T20:44:05.456Z,16.05
2023-04-29T20:46:34.176Z,15.75
2023-04-29T20:49:04.129Z,16.67
2023-04-29T20:51:33.819Z,16.77
2023-04-29T20:54:02.621Z,18.05
2023-04-29T20:56:31.911Z,19.17
2023-04-29T20:59:00.736Z,19.05
2023-04-29T21:04:11.411Z,20.33
2023-04-29T21:06:40.404Z,20.02
2023-04-29T21:09:19.512Z,19.13
2023-04-29T21:11:48.643Z,18.33
2023-04-29T21:14:17.345Z,20.65
2023-04-29T21:16:46.075Z,18.50
2023-04-29T21:19:14.874Z,17.10
2023-04-29T21:21:43.682Z,19.23
2023-04-29T21:24:21.371Z,18.20
2023-04-29T21:26:51.395Z,18.20
2023-04-29T21:29:21.147Z,20.27
2023-04-29T21:31:49.827Z,17.10
2023-04-29T21:34:18.688Z,17.20
2023-04-29T21:36:47.316Z,18.27
2023-04-29T21:39:16.044Z,17.33
2023-04-29T21:41:47.132Z,18.98
2023-04-29T21:44:16.608Z,17.05
2023-04-29T21:46:54.790Z,17.25
2023-04-29T21:49:30.672Z,16.65
2023-04-29T21:52:00.603Z,18.58
2023-04-29T21:54:34.572Z,17.33
2023-04-29T21:57:03.939Z,18.13
2023-04-29T21:59:35.697Z,18.88
2023-04-29T22:02:15.233Z,17.33
2023-04-29T22:04:43.934Z,18.27
2023-04-29T22:07:12.609Z,19.33
2023-04-29T22:09:41.357Z,17.80
2023-04-29T22:12:10.148Z,17.40
2023-04-29T22:14:38.924Z,18.23
2023-04-29T22:17:08.060Z,25.65
2023-04-29T22:19:38.324Z,19.83
2023-04-29T22:22:07.545Z,17.73
2023-04-29T22:24:36.320Z,17.70
2023-04-29T22:27:05.009Z,18.38
2023-04-29T22:29:33.749Z,18.42
2023-04-29T22:32:02.574Z,18.52
2023-04-29T22:34:31.547Z,18.08
2023-04-29T22:37:01.047Z,17.70
2023-04-29T22:39:29.741Z,19.25
2023-04-29T22:41:58.406Z,18.65
2023-04-29T22:44:27.203Z,18.52
2023-04-29T22:46:55.945Z,18.40
2023-04-29T22:49:26.603Z,18.65
2023-04-29T22:51:55.321Z,19.70
2023-04-29T22:54:23.927Z,21.35
2023-04-29T22:56:52.521Z,19.25
2023-04-29T22:59:21.969Z,20.52
2023-04-29T23:01:50.618Z,19.10
2023-04-29T23:04:30.229Z,18.15
2023-04-29T23:07:08.665Z,18.25
2023-04-29T23:09:37.462Z,20.00
2023-04-29T23:12:06.293Z,19.73
2023-04-29T23:14:34.896Z,18.95
2023-04-29T23:17:03.561Z,19.00
2023-04-29T23:19:32.165Z,19.17
2023-04-29T23:22:00.857Z,19.05
2023-04-29T23:24:29.686Z,18.92
2023-04-29T23:27:04.382Z,18.30
2023-04-29T23:29:35.287Z,24.23
2023-04-29T23:32:04.210Z,17.48
2023-04-29T23:34:32.883Z,18.02
2023-04-29T23:37:02.332Z,17.17
2023-04-29T23:39:30.963Z,17.27
2023-04-29T23:41:59.557Z,17.65
2023-04-29T23:44:32.353Z,17.38
2023-04-29T23:49:29.627Z,18.10
2023-04-29T23:51:58.250Z,22.00
2023-04-29T23:54:26.847Z,19.52
2023-04-29T23:56:59.256Z,20.98
2023-04-29T23:59:35.437Z,18.73
